createdAt,value
2022-11-05T00:00:00.695Z,101280
2022-11-05T00:01:00.158Z,101280
2022-11-05T00:02:00.578Z,101280
2022-11-05T00:03:00.163Z,101280
2022-11-05T00:04:00.305Z,101280
2022-11-05T00:05:00.162Z,101280
2022-11-05T00:06:00.165Z,101280
2022-11-05T00:07:06.318Z,101280
2022-11-05T00:08:01.697Z,101280
2022-11-05T00:09:00.193Z,101280
2022-11-05T00:10:05.701Z,101280
2022-11-05T00:11:00.289Z,101270
2022-11-05T00:12:02.102Z,101270
2022-11-05T00:13:00.171Z,101280
2022-11-05T00:14:00.154Z,101280
2022-11-05T00:15:00.156Z,101280
2022-11-05T00:16:00.178Z,101280
2022-11-05T00:17:00.156Z,101280
2022-11-05T00:18:00.287Z,101280
2022-11-05T00:19:00.166Z,101270
2022-11-05T00:20:00.392Z,101270
2022-11-05T00:21:00.203Z,101280
2022-11-05T00:22:00.173Z,101280
2022-11-05T00:23:00.688Z,101280
2022-11-05T00:24:00.152Z,101280
2022-11-05T00:25:00.161Z,101270
2022-11-05T00:26:01.396Z,101270
2022-11-05T00:27:00.151Z,101270
2022-11-05T00:28:01.195Z,101270
2022-11-05T00:29:00.164Z,101280
2022-11-05T00:30:00.164Z,101280
2022-11-05T00:31:03.223Z,101270
2022-11-05T00:32:00.327Z,101270
2022-11-05T00:33:00.635Z,101280
2022-11-05T00:34:00.160Z,101280
2022-11-05T00:35:00.154Z,101280
2022-11-05T00:36:01.761Z,101280
2022-11-05T00:37:00.152Z,101280
2022-11-05T00:38:00.150Z,101280
2022-11-05T00:39:00.150Z,101280
2022-11-05T00:40:00.471Z,101280
2022-11-05T00:41:00.351Z,101280
2022-11-05T00:42:00.158Z,101280
2022-11-05T00:43:00.256Z,101290
2022-11-05T00:44:00.158Z,101290
2022-11-05T00:45:00.153Z,101290
2022-11-05T00:46:00.166Z,101290
2022-11-05T00:47:00.153Z,101290
2022-11-05T00:48:00.162Z,101290
2022-11-05T00:49:00.147Z,101290
2022-11-05T00:50:00.153Z,101290
2022-11-05T00:51:00.170Z,101290
2022-11-05T00:52:00.157Z,101290
2022-11-05T00:53:00.149Z,101290
2022-11-05T00:54:00.172Z,101290
2022-11-05T00:55:00.156Z,101290
2022-11-05T00:56:00.484Z,101290
2022-11-05T00:57:04.499Z,101300
2022-11-05T00:58:01.201Z,101300
2022-11-05T00:59:00.152Z,101300
2022-11-05T01:00:00.205Z,101300
2022-11-05T01:01:01.082Z,101300
2022-11-05T01:02:00.283Z,101300
2022-11-05T01:03:01.138Z,101300
2022-11-05T01:04:00.153Z,101300
2022-11-05T01:05:00.148Z,101300
2022-11-05T01:06:08.796Z,101300
2022-11-05T01:07:00.146Z,101300
2022-11-05T01:08:00.544Z,101300
2022-11-05T01:09:00.152Z,101310
2022-11-05T01:10:00.203Z,101310
2022-11-05T01:11:06.204Z,101310
2022-11-05T01:12:00.164Z,101310
2022-11-05T01:13:00.173Z,101310
2022-11-05T01:14:04.666Z,101310
2022-11-05T01:15:00.176Z,101320
2022-11-05T01:16:03.791Z,101320
2022-11-05T01:17:00.155Z,101320
2022-11-05T01:18:00.161Z,101320
2022-11-05T01:19:00.768Z,101330
2022-11-05T01:20:00.270Z,101330
2022-11-05T01:21:08.344Z,101330
2022-11-05T01:22:00.152Z,101330
2022-11-05T01:23:00.178Z,101330
2022-11-05T01:24:00.278Z,101330
2022-11-05T01:25:00.174Z,101330
2022-11-05T01:26:00.161Z,101330
2022-11-05T01:27:00.154Z,101330
2022-11-05T01:28:00.662Z,101330
2022-11-05T01:29:00.322Z,101340
2022-11-05T01:30:00.164Z,101340
2022-11-05T01:31:00.159Z,101340
2022-11-05T01:32:00.158Z,101340
2022-11-05T01:33:00.239Z,101350
2022-11-05T01:34:00.162Z,101350
2022-11-05T01:35:00.345Z,101340
2022-11-05T01:36:00.248Z,101340
2022-11-05T01:37:00.156Z,101350
2022-11-05T01:38:00.167Z,101350
2022-11-05T01:39:00.148Z,101350
2022-11-05T01:40:00.176Z,101350
2022-11-05T01:41:00.179Z,101340
2022-11-05T01:42:00.159Z,101340
2022-11-05T01:43:00.162Z,101350
2022-11-05T01:44:00.154Z,101350
2022-11-05T01:45:02.569Z,101350
2022-11-05T01:46:00.226Z,101350
2022-11-05T01:47:00.294Z,101350
2022-11-05T01:48:05.188Z,101350
2022-11-05T01:49:05.805Z,101360
2022-11-05T01:50:02.407Z,101360
2022-11-05T01:51:04.010Z,101350
2022-11-05T01:52:02.569Z,101350
2022-11-05T01:53:06.854Z,101350
2022-11-05T01:54:04.791Z,101350
2022-11-05T01:55:00.973Z,101360
2022-11-05T01:56:10.093Z,101360
2022-11-05T01:57:02.547Z,101360
2022-11-05T01:58:01.318Z,101360
2022-11-05T01:59:03.892Z,101350
2022-11-05T02:00:00.373Z,101350
2022-11-05T02:01:00.285Z,101350
2022-11-05T02:02:01.239Z,101350
2022-11-05T02:03:00.534Z,101350
2022-11-05T02:04:03.301Z,101350
2022-11-05T02:05:02.447Z,101350
2022-11-05T02:06:01.649Z,101350
2022-11-05T02:07:00.824Z,101350
2022-11-05T02:08:00.333Z,101350
2022-11-05T02:09:04.754Z,101350
2022-11-05T02:10:01.951Z,101350
2022-11-05T02:11:00.237Z,101350
2022-11-05T02:12:00.517Z,101350
2022-11-05T02:13:00.307Z,101340
2022-11-05T02:14:00.492Z,101340
2022-11-05T02:15:00.208Z,101340
2022-11-05T02:16:00.157Z,101340
2022-11-05T02:17:04.602Z,101340
2022-11-05T02:18:03.414Z,101340
2022-11-05T02:19:08.494Z,101340
2022-11-05T02:20:00.192Z,101340
2022-11-05T02:21:10.092Z,101340
2022-11-05T02:22:10.099Z,101340
2022-11-05T02:23:10.502Z,101340
2022-11-05T02:24:01.177Z,101340
2022-11-05T02:25:10.122Z,101340
2022-11-05T02:26:10.099Z,101340
2022-11-05T02:27:00.154Z,101340
2022-11-05T02:28:10.101Z,101340
2022-11-05T02:29:10.121Z,101330
2022-11-05T02:30:03.973Z,101330
2022-11-05T02:31:03.412Z,101340
2022-11-05T02:32:05.305Z,101340
2022-11-05T02:33:10.417Z,101330
2022-11-05T02:34:00.138Z,101330
2022-11-05T02:35:08.430Z,101340
2022-11-05T02:36:10.110Z,101340
2022-11-05T02:37:09.037Z,101340
2022-11-05T02:38:07.178Z,101340
2022-11-05T02:39:10.139Z,101330
2022-11-05T02:40:00.160Z,101330
2022-11-05T02:41:10.101Z,101330
2022-11-05T02:42:07.076Z,101330
2022-11-05T02:43:06.117Z,101330
2022-11-05T02:44:07.531Z,101330
2022-11-05T02:45:10.113Z,101330
2022-11-05T02:46:05.571Z,101330
2022-11-05T02:47:14.076Z,101320
2022-11-05T02:48:06.550Z,101320
2022-11-05T02:49:03.410Z,101330
2022-11-05T02:50:05.779Z,101330
2022-11-05T02:51:07.827Z,101320
2022-11-05T02:52:05.366Z,101320
2022-11-05T02:53:00.141Z,101330
2022-11-05T02:54:10.096Z,101330
2022-11-05T02:55:10.100Z,101330
2022-11-05T02:56:02.569Z,101330
2022-11-05T02:57:00.986Z,101330
2022-11-05T02:58:01.382Z,101330
2022-11-05T02:59:00.181Z,101330
2022-11-05T03:00:01.047Z,101330
2022-11-05T03:01:00.501Z,101330
2022-11-05T03:02:01.731Z,101330
2022-11-05T03:03:01.033Z,101320
2022-11-05T03:04:02.520Z,101320
2022-11-05T03:05:01.239Z,101330
2022-11-05T03:06:07.688Z,101330
2022-11-05T03:07:10.091Z,101330
2022-11-05T03:08:05.726Z,101330
2022-11-05T03:09:07.173Z,101330
2022-11-05T03:10:10.101Z,101330
2022-11-05T03:11:04.344Z,101330
2022-11-05T03:12:10.107Z,101330
2022-11-05T03:13:08.568Z,101330
2022-11-05T03:14:10.089Z,101330
2022-11-05T03:15:06.742Z,101320
2022-11-05T03:16:04.979Z,101320
2022-11-05T03:17:07.828Z,101330
2022-11-05T03:18:06.005Z,101330
2022-11-05T03:19:06.658Z,101330
2022-11-05T03:20:00.147Z,101330
2022-11-05T03:21:10.093Z,101330
2022-11-05T03:22:03.475Z,101330
2022-11-05T03:23:08.326Z,101330
2022-11-05T03:24:06.614Z,101330
2022-11-05T03:25:02.922Z,101330
2022-11-05T03:26:10.087Z,101330
2022-11-05T03:27:10.091Z,101330
2022-11-05T03:28:04.284Z,101330
2022-11-05T03:29:02.327Z,101340
2022-11-05T03:30:02.124Z,101340
2022-11-05T03:31:00.358Z,101340
2022-11-05T03:32:02.005Z,101340
2022-11-05T03:33:02.936Z,101340
2022-11-05T03:34:01.762Z,101340
2022-11-05T03:35:02.863Z,101340
2022-11-05T03:36:02.538Z,101340
2022-11-05T03:37:01.503Z,101350
2022-11-05T03:38:02.866Z,101350
2022-11-05T03:39:01.957Z,101340
2022-11-05T03:40:02.078Z,101340
2022-11-05T03:41:02.772Z,101350
2022-11-05T03:42:02.543Z,101350
2022-11-05T03:43:01.761Z,101350
2022-11-05T03:44:02.997Z,101350
2022-11-05T03:45:03.262Z,101350
2022-11-05T03:46:02.980Z,101350
2022-11-05T03:47:03.528Z,101350
2022-11-05T03:48:01.307Z,101350
2022-11-05T03:49:02.032Z,101350
2022-11-05T03:50:07.591Z,101350
2022-11-05T03:51:10.091Z,101340
2022-11-05T03:52:06.242Z,101340
2022-11-05T03:53:03.333Z,101340
2022-11-05T03:54:01.624Z,101340
2022-11-05T03:55:00.254Z,101340
2022-11-05T03:56:07.889Z,101340
2022-11-05T03:57:03.805Z,101340
2022-11-05T03:58:00.551Z,101340
2022-11-05T03:59:01.065Z,101340
2022-11-05T04:00:00.205Z,101340
2022-11-05T04:01:01.197Z,101350
2022-11-05T04:02:01.462Z,101350
2022-11-05T04:03:00.242Z,101350
2022-11-05T04:04:00.165Z,101350
2022-11-05T04:05:00.162Z,101350
2022-11-05T04:06:00.559Z,101350
2022-11-05T04:07:00.153Z,101350
2022-11-05T04:08:00.168Z,101350
2022-11-05T04:09:00.158Z,101350
2022-11-05T04:10:00.209Z,101350
2022-11-05T04:11:00.159Z,101350
2022-11-05T04:12:00.160Z,101350
2022-11-05T04:13:00.172Z,101350
2022-11-05T04:14:00.157Z,101350
2022-11-05T04:15:00.211Z,101360
2022-11-05T04:16:00.158Z,101360
2022-11-05T04:17:00.233Z,101360
2022-11-05T04:18:00.154Z,101360
2022-11-05T04:19:00.154Z,101360
2022-11-05T04:20:00.172Z,101360
2022-11-05T04:21:00.159Z,101360
2022-11-05T04:22:00.160Z,101360
2022-11-05T04:23:01.129Z,101370
2022-11-05T04:24:00.146Z,101370
2022-11-05T04:25:00.159Z,101370
2022-11-05T04:26:00.147Z,101370
2022-11-05T04:27:00.153Z,101370
2022-11-05T04:28:00.151Z,101370
2022-11-05T04:29:03.790Z,101370
2022-11-05T04:30:00.663Z,101370
2022-11-05T04:31:00.159Z,101370
2022-11-05T04:32:00.168Z,101370
2022-11-05T04:33:02.228Z,101360
2022-11-05T04:34:00.216Z,101360
2022-11-05T04:35:00.165Z,101370
2022-11-05T04:36:00.150Z,101370
2022-11-05T04:37:00.156Z,101370
2022-11-05T04:38:00.613Z,101370
2022-11-05T04:39:00.209Z,101380
2022-11-05T04:40:00.165Z,101380
2022-11-05T04:41:10.094Z,101380
2022-11-05T04:42:00.155Z,101380
2022-11-05T04:43:00.207Z,101380
2022-11-05T04:44:00.159Z,101380
2022-11-05T04:45:00.154Z,101380
2022-11-05T04:46:00.158Z,101380
2022-11-05T04:47:00.156Z,101380
2022-11-05T04:48:01.062Z,101380
2022-11-05T04:49:00.189Z,101380
2022-11-05T04:50:00.173Z,101380
2022-11-05T04:51:00.188Z,101380
2022-11-05T04:52:00.181Z,101380
2022-11-05T04:53:00.172Z,101390
2022-11-05T04:54:00.164Z,101390
2022-11-05T04:55:00.146Z,101380
2022-11-05T04:56:08.220Z,101380
2022-11-05T04:57:00.168Z,101390
2022-11-05T04:58:00.180Z,101390
2022-11-05T04:59:00.155Z,101390
2022-11-05T05:00:00.172Z,101390
2022-11-05T05:01:00.229Z,101390
2022-11-05T05:02:00.231Z,101390
2022-11-05T05:03:00.171Z,101380
2022-11-05T05:04:00.161Z,101380
2022-11-05T05:05:00.170Z,101380
2022-11-05T05:06:03.780Z,101380
2022-11-05T05:07:00.155Z,101380
2022-11-05T05:08:00.723Z,101380
2022-11-05T05:09:00.157Z,101390
2022-11-05T05:10:00.443Z,101390
2022-11-05T05:11:01.444Z,101400
2022-11-05T05:12:00.168Z,101400
2022-11-05T05:13:00.161Z,101400
2022-11-05T05:14:00.155Z,101400
2022-11-05T05:15:00.156Z,101400
2022-11-05T05:16:04.136Z,101400
2022-11-05T05:17:00.185Z,101400
2022-11-05T05:18:00.151Z,101400
2022-11-05T05:19:00.200Z,101410
2022-11-05T05:20:00.159Z,101410
2022-11-05T05:21:00.637Z,101410
2022-11-05T05:22:00.158Z,101410
2022-11-05T05:23:00.158Z,101410
2022-11-05T05:24:00.488Z,101410
2022-11-05T05:25:00.197Z,101410
2022-11-05T05:26:00.165Z,101410
2022-11-05T05:27:00.155Z,101410
2022-11-05T05:28:00.158Z,101410
2022-11-05T05:29:00.239Z,101410
2022-11-05T05:30:00.188Z,101410
2022-11-05T05:31:00.578Z,101410
2022-11-05T05:32:00.153Z,101410
2022-11-05T05:33:00.794Z,101410
2022-11-05T05:34:00.348Z,101410
2022-11-05T05:35:00.152Z,101410
2022-11-05T05:36:00.169Z,101410
2022-11-05T05:37:00.211Z,101410
2022-11-05T05:38:00.150Z,101410
2022-11-05T05:39:00.186Z,101410
2022-11-05T05:40:00.171Z,101410
2022-11-05T05:41:00.200Z,101410
2022-11-05T05:42:00.176Z,101410
2022-11-05T05:43:00.158Z,101410
2022-11-05T05:44:00.162Z,101410
2022-11-05T05:45:00.154Z,101410
2022-11-05T05:46:00.839Z,101410
2022-11-05T05:47:00.161Z,101410
2022-11-05T05:48:00.163Z,101410
2022-11-05T05:49:00.172Z,101400
2022-11-05T05:50:00.159Z,101400
2022-11-05T05:51:00.972Z,101410
2022-11-05T05:52:00.182Z,101410
2022-11-05T05:53:00.163Z,101410
2022-11-05T05:54:00.152Z,101410
2022-11-05T05:55:00.163Z,101420
2022-11-05T05:56:00.552Z,101420
2022-11-05T05:57:00.156Z,101420
2022-11-05T05:58:00.146Z,101420
2022-11-05T05:59:00.161Z,101430
2022-11-05T06:00:00.157Z,101430
2022-11-05T06:01:01.456Z,101430
2022-11-05T06:02:00.257Z,101430
2022-11-05T06:03:00.311Z,101430
2022-11-05T06:04:00.193Z,101430
2022-11-05T06:05:00.175Z,101420
2022-11-05T06:06:01.078Z,101420
2022-11-05T06:07:00.149Z,101420
2022-11-05T06:08:00.153Z,101420
2022-11-05T06:09:00.181Z,101420
2022-11-05T06:10:00.202Z,101420
2022-11-05T06:11:00.907Z,101410
2022-11-05T06:12:00.153Z,101410
2022-11-05T06:13:00.228Z,101420
2022-11-05T06:14:00.154Z,101420
2022-11-05T06:15:00.152Z,101430
2022-11-05T06:16:00.553Z,101430
2022-11-05T06:17:00.153Z,101420
2022-11-05T06:18:00.146Z,101420
2022-11-05T06:19:00.709Z,101420
2022-11-05T06:20:00.192Z,101420
2022-11-05T06:21:01.034Z,101430
2022-11-05T06:22:00.162Z,101430
2022-11-05T06:23:00.165Z,101420
2022-11-05T06:24:00.497Z,101420
2022-11-05T06:25:00.173Z,101420
2022-11-05T06:26:01.004Z,101420
2022-11-05T06:27:00.168Z,101430
2022-11-05T06:28:00.150Z,101430
2022-11-05T06:29:00.171Z,101430
2022-11-05T06:30:00.183Z,101430
2022-11-05T06:31:00.390Z,101430
2022-11-05T06:32:00.156Z,101430
2022-11-05T06:33:01.224Z,101430
2022-11-05T06:34:00.157Z,101430
2022-11-05T06:35:00.153Z,101430
2022-11-05T06:36:00.824Z,101430
2022-11-05T06:37:00.144Z,101430
2022-11-05T06:38:00.590Z,101430
2022-11-05T06:39:00.148Z,101430
2022-11-05T06:40:00.172Z,101430
2022-11-05T06:41:03.317Z,101440
2022-11-05T06:42:19.002Z,101440
2022-11-05T06:43:00.152Z,101440
2022-11-05T06:44:00.153Z,101440
2022-11-05T06:45:00.151Z,101440
2022-11-05T06:46:01.072Z,101440
2022-11-05T06:47:00.153Z,101440
2022-11-05T06:48:00.156Z,101440
2022-11-05T06:49:00.163Z,101440
2022-11-05T06:50:00.157Z,101440
2022-11-05T06:51:00.350Z,101440
2022-11-05T06:52:00.153Z,101440
2022-11-05T06:53:01.347Z,101430
2022-11-05T06:54:00.158Z,101430
2022-11-05T06:55:00.147Z,101440
2022-11-05T06:56:02.177Z,101440
2022-11-05T06:57:00.154Z,101440
2022-11-05T06:58:00.169Z,101440
2022-11-05T06:59:00.238Z,101440
2022-11-05T07:00:04.514Z,101440
2022-11-05T07:01:01.374Z,101440
2022-11-05T07:02:00.276Z,101440
2022-11-05T07:03:04.104Z,101450
2022-11-05T07:04:00.463Z,101450
2022-11-05T07:05:00.161Z,101450
2022-11-05T07:06:01.057Z,101450
2022-11-05T07:07:00.296Z,101450
2022-11-05T07:08:00.152Z,101450
2022-11-05T07:09:00.643Z,101450
2022-11-05T07:10:00.148Z,101450
2022-11-05T07:11:00.175Z,101460
2022-11-05T07:12:00.151Z,101460
2022-11-05T07:13:05.053Z,101450
2022-11-05T07:14:00.161Z,101450
2022-11-05T07:15:00.168Z,101460
2022-11-05T07:16:00.153Z,101460
2022-11-05T07:17:00.152Z,101460
2022-11-05T07:18:00.503Z,101460
2022-11-05T07:19:00.196Z,101460
2022-11-05T07:20:00.295Z,101460
2022-11-05T07:21:00.212Z,101460
2022-11-05T07:22:00.160Z,101460
2022-11-05T07:23:01.191Z,101460
2022-11-05T07:24:00.248Z,101460
2022-11-05T07:25:00.229Z,101470
2022-11-05T07:26:00.155Z,101470
2022-11-05T07:27:00.148Z,101470
2022-11-05T07:28:00.787Z,101470
2022-11-05T07:29:00.196Z,101470
2022-11-05T07:30:00.177Z,101470
2022-11-05T07:31:00.174Z,101470
2022-11-05T07:32:00.148Z,101470
2022-11-05T07:33:00.317Z,101470
2022-11-05T07:34:00.159Z,101470
2022-11-05T07:35:00.180Z,101470
2022-11-05T07:36:00.162Z,101470
2022-11-05T07:37:00.215Z,101480
2022-11-05T07:38:00.167Z,101480
2022-11-05T07:39:00.736Z,101480
2022-11-05T07:40:00.169Z,101480
2022-11-05T07:41:00.490Z,101480
2022-11-05T07:42:00.145Z,101480
2022-11-05T07:43:00.377Z,101480
2022-11-05T07:44:00.150Z,101480
2022-11-05T07:45:00.166Z,101480
2022-11-05T07:46:00.154Z,101480
2022-11-05T07:47:00.162Z,101480
2022-11-05T07:48:00.867Z,101480
2022-11-05T07:49:00.154Z,101490
2022-11-05T07:50:00.151Z,101490
2022-11-05T07:51:00.148Z,101480
2022-11-05T07:52:00.149Z,101480
2022-11-05T07:53:01.009Z,101480
2022-11-05T07:54:00.211Z,101480
2022-11-05T07:55:00.147Z,101480
2022-11-05T07:56:00.146Z,101480
2022-11-05T07:57:00.154Z,101480
2022-11-05T07:58:00.586Z,101480
2022-11-05T07:59:00.213Z,101490
2022-11-05T08:00:00.164Z,101490
2022-11-05T08:01:00.250Z,101480
2022-11-05T08:02:00.482Z,101480
2022-11-05T08:03:07.821Z,101490
2022-11-05T08:04:00.155Z,101490
2022-11-05T08:05:00.156Z,101480
2022-11-05T08:06:00.165Z,101480
2022-11-05T08:07:00.149Z,101480
2022-11-05T08:08:00.153Z,101480
2022-11-05T08:09:00.155Z,101490
2022-11-05T08:10:00.461Z,101490
2022-11-05T08:11:04.272Z,101480
2022-11-05T08:12:03.160Z,101480
2022-11-05T08:13:00.613Z,101490
2022-11-05T08:14:00.149Z,101490
2022-11-05T08:15:00.159Z,101490
2022-11-05T08:16:00.410Z,101490
2022-11-05T08:17:00.153Z,101490
2022-11-05T08:18:01.157Z,101490
2022-11-05T08:19:00.161Z,101490
2022-11-05T08:20:00.181Z,101490
2022-11-05T08:21:01.520Z,101490
2022-11-05T08:22:00.161Z,101490
2022-11-05T08:23:00.203Z,101490
2022-11-05T08:24:00.193Z,101490
2022-11-05T08:25:04.088Z,101480
2022-11-05T08:26:01.533Z,101480
2022-11-05T08:27:00.161Z,101480
2022-11-05T08:28:01.328Z,101480
2022-11-05T08:29:00.169Z,101480
2022-11-05T08:30:00.161Z,101480
2022-11-05T08:31:00.154Z,101490
2022-11-05T08:32:00.151Z,101490
2022-11-05T08:33:01.627Z,101480
2022-11-05T08:34:02.702Z,101480
2022-11-05T08:35:00.253Z,101490
2022-11-05T08:36:00.738Z,101490
2022-11-05T08:37:00.857Z,101490
2022-11-05T08:38:00.864Z,101490
2022-11-05T08:39:00.146Z,101490
2022-11-05T08:40:00.163Z,101490
2022-11-05T08:41:00.161Z,101490
2022-11-05T08:42:00.202Z,101490
2022-11-05T08:43:01.031Z,101490
2022-11-05T08:44:00.162Z,101490
2022-11-05T08:45:00.182Z,101490
2022-11-05T08:46:00.318Z,101490
2022-11-05T08:47:00.164Z,101490
2022-11-05T08:48:01.089Z,101490
2022-11-05T08:49:00.145Z,101500
2022-11-05T08:50:00.164Z,101500
2022-11-05T08:51:00.158Z,101490
2022-11-05T08:52:00.162Z,101490
2022-11-05T08:53:00.191Z,101490
2022-11-05T08:54:00.195Z,101490
2022-11-05T08:55:00.184Z,101490
2022-11-05T08:56:00.160Z,101490
2022-11-05T08:57:00.154Z,101500
2022-11-05T08:58:01.287Z,101500
2022-11-05T08:59:00.194Z,101500
2022-11-05T09:00:00.163Z,101500
2022-11-05T09:01:05.237Z,101490
2022-11-05T09:02:00.358Z,101490
2022-11-05T09:03:00.944Z,101500
2022-11-05T09:04:00.172Z,101500
2022-11-05T09:05:00.163Z,101500
2022-11-05T09:06:00.163Z,101500
2022-11-05T09:07:00.155Z,101490
2022-11-05T09:08:01.544Z,101490
2022-11-05T09:09:00.154Z,101490
2022-11-05T09:10:00.157Z,101490
2022-11-05T09:11:00.168Z,101490
2022-11-05T09:12:12.764Z,101490
2022-11-05T09:13:00.180Z,101490
2022-11-05T09:14:00.150Z,101490
2022-11-05T09:15:00.152Z,101490
2022-11-05T09:16:00.206Z,101490
2022-11-05T09:17:00.155Z,101490
2022-11-05T09:18:00.539Z,101490
2022-11-05T09:19:00.150Z,101500
2022-11-05T09:20:00.541Z,101500
2022-11-05T09:21:00.165Z,101490
2022-11-05T09:22:00.226Z,101490
2022-11-05T09:23:00.150Z,101500
2022-11-05T09:24:00.159Z,101500
2022-11-05T09:25:00.167Z,101490
2022-11-05T09:26:00.159Z,101490
2022-11-05T09:27:00.156Z,101490
2022-11-05T09:28:14.665Z,101490
2022-11-05T09:29:00.265Z,101500
2022-11-05T09:30:00.269Z,101500
2022-11-05T09:31:03.795Z,101500
2022-11-05T09:32:00.155Z,101500
2022-11-05T09:33:00.156Z,101500
2022-11-05T09:34:00.152Z,101500
2022-11-05T09:35:00.176Z,101500
2022-11-05T09:36:00.515Z,101500
2022-11-05T09:37:00.269Z,101500
2022-11-05T09:38:01.225Z,101500
2022-11-05T09:39:00.151Z,101500
2022-11-05T09:40:00.216Z,101500
2022-11-05T09:41:01.166Z,101510
2022-11-05T09:42:03.399Z,101510
2022-11-05T09:43:00.506Z,101500
2022-11-05T09:44:02.379Z,101500
2022-11-05T09:45:02.667Z,101510
2022-11-05T09:46:03.473Z,101510
2022-11-05T09:47:03.936Z,101500
2022-11-05T09:48:07.573Z,101500
2022-11-05T09:49:03.573Z,101510
2022-11-05T09:50:02.166Z,101510
2022-11-05T09:51:00.271Z,101510
2022-11-05T09:52:00.803Z,101510
2022-11-05T09:53:00.633Z,101510
2022-11-05T09:54:00.455Z,101510
2022-11-05T09:55:02.025Z,101520
2022-11-05T09:56:00.254Z,101520
2022-11-05T09:57:01.234Z,101520
2022-11-05T09:58:01.961Z,101520
2022-11-05T09:59:02.155Z,101520
2022-11-05T10:00:01.395Z,101520
2022-11-05T10:01:01.840Z,101520
2022-11-05T10:02:03.551Z,101520
2022-11-05T10:03:03.147Z,101520
2022-11-05T10:04:04.761Z,101520
2022-11-05T10:05:09.442Z,101520
2022-11-05T10:06:06.489Z,101520
2022-11-05T10:07:01.609Z,101520
2022-11-05T10:08:03.537Z,101520
2022-11-05T10:09:04.271Z,101530
2022-11-05T10:10:03.052Z,101530
2022-11-05T10:11:06.089Z,101520
2022-11-05T10:12:06.450Z,101520
2022-11-05T10:13:03.583Z,101530
2022-11-05T10:14:05.642Z,101530
2022-11-05T10:15:10.103Z,101530
2022-11-05T10:16:03.429Z,101530
2022-11-05T10:17:03.173Z,101540
2022-11-05T10:18:04.978Z,101540
2022-11-05T10:19:04.833Z,101530
2022-11-05T10:20:07.134Z,101530
2022-11-05T10:21:00.399Z,101530
2022-11-05T10:22:07.485Z,101530
2022-11-05T10:23:04.733Z,101530
2022-11-05T10:24:00.379Z,101530
2022-11-05T10:25:00.174Z,101530
2022-11-05T10:26:10.094Z,101530
2022-11-05T10:27:00.388Z,101530
2022-11-05T10:28:02.212Z,101530
2022-11-05T10:29:00.154Z,101540
2022-11-05T10:30:00.409Z,101540
2022-11-05T10:31:03.603Z,101530
2022-11-05T10:32:01.989Z,101530
2022-11-05T10:33:03.005Z,101540
2022-11-05T10:34:02.888Z,101540
2022-11-05T10:35:01.364Z,101540
2022-11-05T10:36:03.286Z,101540
2022-11-05T10:37:00.247Z,101540
2022-11-05T10:38:00.619Z,101540
2022-11-05T10:39:08.971Z,101540
2022-11-05T10:40:00.174Z,101540
2022-11-05T10:41:10.097Z,101540
2022-11-05T10:42:00.154Z,101540
2022-11-05T10:43:10.501Z,101540
2022-11-05T10:44:13.479Z,101540
2022-11-05T10:45:10.102Z,101540
2022-11-05T10:46:10.088Z,101540
2022-11-05T10:47:01.155Z,101540
2022-11-05T10:48:00.134Z,101540
2022-11-05T10:49:10.089Z,101540
2022-11-05T10:50:03.616Z,101540
2022-11-05T10:51:00.247Z,101540
2022-11-05T10:52:10.100Z,101540
2022-11-05T10:53:01.655Z,101540
2022-11-05T10:54:04.082Z,101540
2022-11-05T10:55:01.584Z,101540
2022-11-05T10:56:00.237Z,101540
2022-11-05T10:57:10.096Z,101540
2022-11-05T10:58:10.093Z,101540
2022-11-05T10:59:00.320Z,101540
2022-11-05T11:00:10.117Z,101540
2022-11-05T11:01:01.956Z,101540
2022-11-05T11:02:03.295Z,101540
2022-11-05T11:03:01.722Z,101540
2022-11-05T11:04:05.486Z,101540
2022-11-05T11:05:00.322Z,101540
2022-11-05T11:06:01.820Z,101540
2022-11-05T11:07:01.126Z,101530
2022-11-05T11:08:03.408Z,101530
2022-11-05T11:09:01.578Z,101540
2022-11-05T11:10:00.294Z,101540
2022-11-05T11:11:03.803Z,101540
2022-11-05T11:12:03.080Z,101540
2022-11-05T11:13:00.920Z,101540
2022-11-05T11:14:03.684Z,101540
2022-11-05T11:15:03.400Z,101530
2022-11-05T11:16:10.088Z,101530
2022-11-05T11:17:10.094Z,101530
2022-11-05T11:18:10.094Z,101530
2022-11-05T11:19:00.598Z,101530
2022-11-05T11:20:10.091Z,101530
2022-11-05T11:21:05.104Z,101530
2022-11-05T11:22:03.395Z,101530
2022-11-05T11:23:10.456Z,101530
2022-11-05T11:24:01.670Z,101530
2022-11-05T11:25:10.107Z,101530
2022-11-05T11:26:00.585Z,101530
2022-11-05T11:27:01.232Z,101530
2022-11-05T11:28:01.676Z,101530
2022-11-05T11:29:01.158Z,101530
2022-11-05T11:30:01.471Z,101530
2022-11-05T11:31:10.093Z,101520
2022-11-05T11:32:00.495Z,101520
2022-11-05T11:33:05.670Z,101530
2022-11-05T11:34:02.290Z,101530
2022-11-05T11:35:00.412Z,101530
2022-11-05T11:36:00.246Z,101530
2022-11-05T11:37:08.702Z,101530
2022-11-05T11:38:00.183Z,101530
2022-11-05T11:39:02.039Z,101530
2022-11-05T11:40:03.277Z,101530
2022-11-05T11:41:10.093Z,101520
2022-11-05T11:42:04.340Z,101520
2022-11-05T11:43:02.876Z,101520
2022-11-05T11:44:05.346Z,101520
2022-11-05T11:45:04.256Z,101530
2022-11-05T11:46:05.359Z,101530
2022-11-05T11:47:02.120Z,101520
2022-11-05T11:48:01.200Z,101520
2022-11-05T11:49:00.221Z,101520
2022-11-05T11:50:00.698Z,101520
2022-11-05T11:51:10.094Z,101520
2022-11-05T11:52:03.395Z,101520
2022-11-05T11:53:10.304Z,101530
2022-11-05T11:54:00.639Z,101530
2022-11-05T11:55:10.097Z,101530
2022-11-05T11:56:03.187Z,101530
2022-11-05T11:57:00.526Z,101530
2022-11-05T11:58:10.033Z,101530
2022-11-05T11:59:01.678Z,101530
2022-11-05T12:00:09.240Z,101530
2022-11-05T12:01:08.516Z,101520
2022-11-05T12:02:10.217Z,101520
2022-11-05T12:03:03.426Z,101520
2022-11-05T12:04:10.098Z,101520
2022-11-05T12:05:10.104Z,101520
2022-11-05T12:06:10.088Z,101520
2022-11-05T12:07:10.088Z,101520
2022-11-05T12:08:10.095Z,101520
2022-11-05T12:09:07.573Z,101520
2022-11-05T12:10:00.173Z,101520
2022-11-05T12:11:00.138Z,101510
2022-11-05T12:12:04.330Z,101510
2022-11-05T12:13:03.419Z,101510
2022-11-05T12:14:03.325Z,101510
2022-11-05T12:15:10.102Z,101510
2022-11-05T12:16:10.088Z,101510
2022-11-05T12:17:03.404Z,101500
2022-11-05T12:18:01.577Z,101500
2022-11-05T12:19:09.388Z,101500
2022-11-05T12:20:08.139Z,101500
2022-11-05T12:21:10.091Z,101500
2022-11-05T12:22:06.445Z,101500
2022-11-05T12:23:10.538Z,101510
2022-11-05T12:24:10.095Z,101510
2022-11-05T12:25:10.097Z,101510
2022-11-05T12:26:06.261Z,101510
2022-11-05T12:27:00.132Z,101510
2022-11-05T12:28:00.141Z,101510